Time;durP1;ratioP1;P1;durP2;ratioP2;P2;SDS_P1;SDS_P2;PMS_P1;PMS_P2;Temp;Humidity;BMP_temperature;BMP_pressure;BME280_temperature;BME280_humidity;BME280_pressure;Samples;Min_cycle;Max_cycle;Signal;HPM_P1;HPM_P2
2022/09/09 00:02:27;;;;;;;3.97;3.55;;;;;;;23.86;51.21;100772.91;4998944;28;20045;-75
2022/09/09 00:05:18;;;;;;;5.35;3.55;;;;;;;23.79;51.02;100758.84;4995127;28;20063;-73
2022/09/09 00:07:49;;;;;;;9.25;3.95;;;;;;;23.76;51.12;100745.97;5002461;28;20038;-74
2022/09/09 00:10:44;;;;;;;5.47;3.80;;;;;;;23.83;51.13;100760.03;4997182;28;20049;-73
2022/09/09 00:13:19;;;;;;;5.72;3.70;;;;;;;23.83;51.18;100759.22;4985630;28;20096;-73
2022/09/09 00:16:19;;;;;;;5.28;3.90;;;;;;;23.78;51.02;100752.69;5001578;28;20046;-73
2022/09/09 00:19:13;;;;;;;4.43;3.50;;;;;;;23.83;51.19;100764.53;5003006;28;20144;-73
2022/09/09 00:21:47;;;;;;;5.13;3.65;;;;;;;23.79;51.21;100758.84;4993243;28;20050;-73
2022/09/09 00:24:27;;;;;;;3.90;3.45;;;;;;;23.78;51.26;100758.00;5002214;28;20089;-73
2022/09/09 00:27:01;;;;;;;4.20;3.33;;;;;;;23.73;51.07;100746.38;4999291;28;20046;-73
2022/09/09 00:29:53;;;;;;;5.78;3.70;;;;;;;23.78;51.14;100755.34;4978889;28;20096;-73
2022/09/09 00:32:20;;;;;;;4.57;3.55;;;;;;;23.75;51.24;100753.13;4997979;28;20548;-73
2022/09/09 00:35:02;;;;;;;4.53;3.45;;;;;;;23.74;51.31;100753.31;4994233;28;20084;-73
2022/09/09 00:37:31;;;;;;;5.10;3.63;;;;;;;23.71;51.12;100738.59;4985308;28;20046;-73
2022/09/09 00:40:00;;;;;;;5.90;3.58;;;;;;;23.74;51.15;100743.50;4998463;28;20117;-73
2022/09/09 00:42:35;;;;;;;4.88;3.90;;;;;;;23.74;51.20;100746.16;4999546;28;20466;-73
2022/09/09 00:45:38;;;;;;;4.38;3.20;;;;;;;23.73;51.34;100743.72;4999357;28;20801;-73
2022/09/09 00:48:11;;;;;;;5.20;3.25;;;;;;;23.73;51.11;100739.22;4999387;28;20041;-73
2022/09/09 00:51:01;;;;;;;4.47;3.55;;;;;;;23.73;51.03;100749.03;4999495;28;20044;-73
2022/09/09 00:53:45;;;;;;;;;;;;;;;23.58;51.21;100719.19;4996479;28;20042;-73
2022/09/09 00:56:14;;;;;;;7.88;3.70;;;;;;;23.66;51.41;100735.72;4997064;28;19928;-73
2022/09/09 00:58:54;;;;;;;5.18;3.63;;;;;;;23.69;51.17;100732.66;4982189;28;20034;-73
2022/09/09 01:01:19;;;;;;;5.70;3.78;;;;;;;23.70;51.24;100733.50;4998310;28;20041;-73
2022/09/09 01:03:59;;;;;;;4.65;3.38;;;;;;;23.68;51.13;100730.22;4996506;28;20034;-73
2022/09/09 01:06:32;;;;;;;5.93;3.80;;;;;;;23.67;51.19;100729.41;4979093;28;20046;-73
2022/09/09 01:09:10;;;;;;;5.45;3.72;;;;;;;23.67;51.20;100731.22;5001282;28;20187;-73
2022/09/09 01:11:53;;;;;;;4.40;3.53;;;;;;;23.66;51.20;100729.59;4997079;28;20046;-73
2022/09/09 01:14:34;;;;;;;5.35;3.53;;;;;;;23.65;51.17;100733.28;4983439;28;20033;-73
2022/09/09 01:17:15;;;;;;;5.32;3.20;;;;;;;23.66;51.07;100732.25;4982074;28;20448;-73
2022/09/09 01:19:43;;;;;;;4.97;3.60;;;;;;;23.63;51.29;100732.69;4981769;28;20030;-73
2022/09/09 01:22:18;;;;;;;5.20;3.53;;;;;;;23.63;51.32;100733.50;4995460;28;20118;-73
2022/09/09 01:25:13;;;;;;;4.13;3.28;;;;;;;23.63;51.33;100732.69;4982175;28;20046;-73
2022/09/09 01:28:08;;;;;;;4.28;3.20;;;;;;;23.62;51.15;100728.38;4995326;28;20111;-73
2022/09/09 01:30:35;;;;;;;5.07;3.40;;;;;;;23.59;51.11;100728.81;4983718;28;20703;-73
2022/09/09 01:33:03;;;;;;;8.80;3.63;;;;;;;23.61;51.47;100729.41;4994999;28;20618;-73
2022/09/09 01:35:31;;;;;;;4.50;3.40;;;;;;;23.61;51.23;100726.75;4995939;28;20484;-73
2022/09/09 01:37:58;;;;;;;3.67;2.95;;;;;;;23.60;51.25;100735.75;4979549;28;20040;-73
2022/09/09 01:40:25;;;;;;;4.28;3.63;;;;;;;23.60;51.01;100728.59;4980338;28;20046;-73
2022/09/09 01:42:53;;;;;;;5.25;3.40;;;;;;;23.60;51.20;100733.09;4980601;28;20104;-73
2022/09/09 01:45:18;;;;;;;4.05;3.30;;;;;;;23.58;51.22;100729.84;4981560;28;20091;-73
2022/09/09 01:47:45;;;;;;;5.40;3.60;;;;;;;23.57;51.25;100734.34;4978307;28;20057;-72
2022/09/09 01:50:31;;;;;;;3.95;3.53;;;;;;;23.57;51.28;100734.34;4996017;28;20034;-73
2022/09/09 01:52:58;;;;;;;4.75;3.28;;;;;;;23.50;51.31;100733.47;4979759;28;20451;-73
2022/09/09 01:56:04;;;;;;;5.20;3.90;;;;;;;23.58;51.04;100735.16;4995548;28;20038;-73
2022/09/09 01:58:59;;;;;;;4.05;3.40;;;;;;;23.57;51.29;100739.66;4980945;28;20583;-73
2022/09/09 02:02:09;;;;;;;6.95;3.63;;;;;;;23.57;51.26;100741.50;4972157;28;20042;-73
2022/09/09 02:04:41;;;;;;;4.30;3.28;;;;;;;23.55;51.06;100732.88;4953869;28;20076;-73
2022/09/09 02:07:27;;;;;;;5.45;3.40;;;;;;;23.52;51.30;100737.59;4977218;28;21575;-73
2022/09/09 02:10:04;;;;;;;5.22;3.28;;;;;;;23.51;51.24;100727.94;4977900;28;20531;-73
2022/09/09 02:12:31;;;;;;;4.95;3.25;;;;;;;23.45;51.15;100722.66;4999313;28;20445;-73
2022/09/09 02:15:14;;;;;;;5.90;3.78;;;;;;;23.52;51.15;100731.44;4980370;28;20103;-73
2022/09/09 02:17:50;;;;;;;4.30;3.47;;;;;;;23.51;50.98;100733.25;4985410;28;20042;-73
2022/09/09 02:20:19;;;;;;;5.57;3.38;;;;;;;23.45;51.06;100728.78;4977642;28;20421;-73
2022/09/09 02:22:50;;;;;;;5.72;3.10;;;;;;;23.50;51.16;100728.16;4968833;28;20042;-73
2022/09/09 02:25:23;;;;;;;4.50;3.25;;;;;;;23.51;51.08;100729.78;4981090;28;20044;-73
2022/09/09 02:27:51;;;;;;;5.18;3.80;;;;;;;23.42;51.37;100721.22;4993276;28;20144;-73
2022/09/09 02:30:19;;;;;;;4.93;3.00;;;;;;;23.49;51.05;100732.66;4996973;28;20034;-73
2022/09/09 02:32:56;;;;;;;4.72;3.22;;;;;;;23.48;51.12;100720.41;4985240;28;20030;-73
2022/09/09 02:35:26;;;;;;;3.83;3.40;;;;;;;23.44;51.16;100713.03;4980801;28;20038;-73
2022/09/09 02:37:54;;;;;;;5.82;3.00;;;;;;;23.48;51.20;100720.41;4980419;28;20038;-73
2022/09/09 02:40:22;;;;;;;4.10;2.85;;;;;;;23.41;50.96;100705.50;4975275;28;20036;-73
2022/09/09 02:42:55;;;;;;;4.78;3.30;;;;;;;23.47;50.97;100716.09;4978982;28;20518;-73
2022/09/09 02:45:27;;;;;;;4.57;3.30;;;;;;;23.40;51.04;100706.53;4992368;28;20035;-73
2022/09/09 02:47:53;;;;;;;4.25;3.33;;;;;;;23.47;51.14;100718.75;4983844;28;21376;-73
2022/09/09 02:50:43;;;;;;;5.82;3.10;;;;;;;23.44;51.21;100715.72;4985415;28;20955;-73
2022/09/09 02:53:22;;;;;;;5.68;3.40;;;;;;;23.45;50.93;100722.66;4984773;28;20045;-73
2022/09/09 02:56:05;;;;;;;4.68;3.20;;;;;;;23.46;50.97;100716.31;4992336;28;20037;-73
2022/09/09 02:58:35;;;;;;;3.30;3.00;;;;;;;23.45;50.97;100722.66;4998457;28;20302;-73
2022/09/09 03:01:04;;;;;;;5.18;3.03;;;;;;;23.44;51.29;100721.84;4996821;28;20030;-73
2022/09/09 03:03:31;;;;;;;5.72;3.40;;;;;;;23.41;51.18;100719.59;4995319;28;20037;-73
2022/09/09 03:05:58;;;;;;;5.22;3.50;;;;;;;23.43;51.14;100727.34;4983249;28;20040;-73
2022/09/09 03:08:27;;;;;;;4.00;3.00;;;;;;;23.44;51.17;100732.47;4984199;28;20077;-75
2022/09/09 03:10:54;;;;;;;5.25;3.30;;;;;;;23.44;50.92;100726.34;4979864;28;20129;-73
2022/09/09 03:13:20;;;;;;;5.18;2.78;;;;;;;23.43;51.28;100725.53;4981176;28;20076;-73
2022/09/09 03:15:48;;;;;;;3.75;2.88;;;;;;;23.43;51.07;100716.72;4982355;28;20034;-74
2022/09/09 03:18:16;;;;;;;4.10;3.10;;;;;;;23.43;51.14;100719.38;4983547;28;20044;-78
2022/09/09 03:20:43;;;;;;;5.18;3.10;;;;;;;23.41;51.25;100722.25;4981871;28;20046;-73
2022/09/09 03:23:10;;;;;;;3.10;2.80;;;;;;;23.37;50.99;100709.59;4981882;28;20042;-74
2022/09/09 03:25:35;;;;;;;5.55;2.65;;;;;;;23.41;51.20;100721.44;4995372;28;20065;-75
2022/09/09 03:28:01;;;;;;;4.15;2.60;;;;;;;23.40;51.08;100720.63;4975197;28;20522;-74
2022/09/09 03:30:27;;;;;;;4.07;3.30;;;;;;;23.38;51.29;100721.84;4996020;28;20092;-75
2022/09/09 03:32:55;;;;;;;2.92;2.60;;;;;;;23.39;51.10;100729.63;4970328;28;20038;-74
2022/09/09 03:35:22;;;;;;;4.45;3.08;;;;;;;23.37;51.16;100717.56;4978742;28;20212;-74
2022/09/09 03:37:47;;;;;;;4.70;2.72;;;;;;;23.40;50.95;100725.13;4977898;28;20038;-75
2022/09/09 03:40:14;;;;;;;3.75;2.70;;;;;;;23.37;51.09;100722.88;4980702;28;20130;-74
2022/09/09 03:42:41;;;;;;;4.57;2.40;;;;;;;23.36;51.28;100727.38;4976640;28;20528;-75
2022/09/09 03:45:10;;;;;;;3.00;2.70;;;;;;;23.38;51.27;100727.16;4982266;28;20053;-75
2022/09/09 03:47:37;;;;;;;4.03;2.72;;;;;;;23.38;51.19;100719.19;4979838;28;20169;-74
2022/09/09 03:50:09;;;;;;;5.18;2.75;;;;;;;23.34;51.13;100717.94;4995468;28;21166;-75
2022/09/09 03:52:37;;;;;;;4.30;3.08;;;;;;;23.29;51.34;100707.13;4995989;28;20416;-74
2022/09/09 03:55:05;;;;;;;6.13;3.07;;;;;;;23.35;50.94;100719.63;4999340;28;20428;-76
2022/09/09 03:57:34;;;;;;;3.45;2.53;;;;;;;23.35;51.16;100723.09;4998159;28;20034;-75
2022/09/09 04:00:03;;;;;;;4.05;2.60;;;;;;;23.35;51.13;100719.63;4977268;28;20045;-74
2022/09/09 04:02:31;;;;;;;4.75;3.00;;;;;;;23.29;51.14;100715.91;4990585;28;20058;-75
2022/09/09 04:04:56;;;;;;;4.28;2.50;;;;;;;23.17;51.10;100693.66;4996699;28;20490;-74
2022/09/09 04:07:22;;;;;;;5.13;2.83;;;;;;;23.27;51.20;100711.84;4980199;28;20045;-75
2022/09/09 04:09:48;;;;;;;6.22;2.78;;;;;;;23.35;51.28;100722.28;4981125;28;20030;-75
2022/09/09 04:12:14;;;;;;;4.50;2.65;;;;;;;23.34;51.22;100721.44;4980459;28;20045;-74
2022/09/09 04:14:40;;;;;;;3.90;2.70;;;;;;;23.35;51.09;100728.41;4981703;28;20045;-73
2022/09/09 04:17:06;;;;;;;3.17;2.40;;;;;;;23.32;51.40;100730.63;4991648;28;20041;-75
2022/09/09 04:19:33;;;;;;;5.50;2.40;;;;;;;23.34;51.37;100726.75;4980769;28;20080;-75
2022/09/09 04:21:59;;;;;;;4.80;2.65;;;;;;;23.33;51.17;100733.06;4998119;28;20499;-74
2022/09/09 04:24:27;;;;;;;2.72;2.40;;;;;;;23.32;51.23;100728.78;4975873;28;20606;-74
2022/09/09 04:26:53;;;;;;;2.92;2.50;;;;;;;23.33;51.31;100734.91;4979422;28;20046;-75
2022/09/09 04:29:19;;;;;;;4.40;2.63;;;;;;;23.17;51.28;100707.75;4994218;28;20041;-75
2022/09/09 04:31:45;;;;;;;2.97;2.38;;;;;;;23.32;51.13;100731.44;4977899;28;20038;-74
2022/09/09 04:34:10;;;;;;;4.50;2.60;;;;;;;23.32;51.12;100727.97;4995315;28;20515;-74
2022/09/09 04:36:36;;;;;;;4.43;2.60;;;;;;;23.29;51.16;100728.38;4994256;28;20488;-76
2022/09/09 04:39:04;;;;;;;4.60;2.72;;;;;;;23.28;51.17;100730.22;4997781;28;20673;-74
2022/09/09 04:41:31;;;;;;;3.78;2.78;;;;;;;23.32;51.33;100730.63;4979151;28;20042;-75
2022/09/09 04:43:57;;;;;;;4.55;2.63;;;;;;;23.27;51.12;100731.25;4982555;28;20037;-74
2022/09/09 04:46:23;;;;;;;3.05;2.40;;;;;;;23.31;51.12;100742.28;4981780;28;20165;-74
2022/09/09 04:48:49;;;;;;;3.38;2.40;;;;;;;23.31;51.18;100736.97;4983818;28;20156;-74
2022/09/09 04:51:15;;;;;;;4.05;2.60;;;;;;;23.29;50.99;100729.19;4984498;28;20042;-74
2022/09/09 04:53:42;;;;;;;2.75;2.40;;;;;;;23.29;51.31;100723.06;5001909;28;20173;-74
2022/09/09 04:56:15;;;;;;;4.15;2.53;;;;;;;23.27;51.23;100725.94;5000330;28;21643;-74
2022/09/09 04:58:47;;;;;;;3.83;2.50;;;;;;;23.29;51.04;100723.06;4997415;28;20048;-74
2022/09/09 05:01:19;;;;;;;3.53;2.40;;;;;;;23.29;51.38;100731.03;4985838;28;20120;-75
2022/09/09 05:03:46;;;;;;;5.20;2.50;;;;;;;23.28;51.24;100726.75;4997280;28;20096;-74
2022/09/09 05:06:17;;;;;;;3.13;2.35;;;;;;;23.28;51.24;100732.06;4968400;28;20582;-74
2022/09/09 05:08:46;;;;;;;6.55;2.90;;;;;;;23.27;51.22;100733.91;4995971;28;20033;-74
2022/09/09 05:11:16;;;;;;;4.05;2.38;;;;;;;23.27;51.26;100738.41;4983076;28;20029;-74
2022/09/09 05:13:41;;;;;;;5.32;2.70;;;;;;;23.26;51.05;100734.09;4981803;28;20255;-74
2022/09/09 05:16:10;;;;;;;2.80;2.35;;;;;;;23.27;51.12;100741.06;4968175;28;20041;-74
2022/09/09 05:18:36;;;;;;;4.38;2.60;;;;;;;23.27;51.25;100739.22;4978854;28;20061;-74
2022/09/09 05:21:02;;;;;;;5.28;2.80;;;;;;;23.27;51.04;100731.25;4982816;28;20500;-74
2022/09/09 05:23:29;;;;;;;3.05;2.10;;;;;;;23.20;51.23;100728.59;4994209;28;20037;-76
2022/09/09 05:25:59;;;;;;;3.20;2.20;;;;;;;23.21;51.07;100726.75;4995767;28;20065;-74
2022/09/09 05:28:25;;;;;;;;;;;;;;;23.25;51.05;100732.47;4960143;28;20162;-74
2022/09/09 05:31:00;;;;;;;2.88;2.42;;;;;;;23.24;51.03;100731.66;4993702;28;20016;-74
2022/09/09 05:33:27;;;;;;;3.15;2.28;;;;;;;23.24;51.22;100736.97;4991901;28;20122;-74
2022/09/09 05:36:01;;;;;;;4.32;2.55;;;;;;;23.24;51.07;100739.63;4992197;28;20532;-74
2022/09/09 05:38:27;;;;;;;3.67;2.17;;;;;;;23.25;51.15;100733.28;5002960;28;20065;-74
2022/09/09 05:40:53;;;;;;;2.92;2.33;;;;;;;23.24;51.24;100731.66;4987146;28;20127;-74
2022/09/09 05:43:20;;;;;;;3.38;2.42;;;;;;;23.21;51.15;100732.88;4979007;28;20732;-74
2022/09/09 05:45:47;;;;;;;2.45;2.10;;;;;;;23.24;51.05;100736.97;4986525;28;20034;-74
2022/09/09 05:48:16;;;;;;;3.70;2.42;;;;;;;23.23;51.14;100734.53;4980053;28;20041;-74
2022/09/09 05:50:42;;;;;;;4.88;1.85;;;;;;;23.19;51.20;100734.13;4984347;28;20033;-74
2022/09/09 05:53:10;;;;;;;2.30;2.10;;;;;;;23.23;51.17;100738.00;4980408;28;20034;-74
2022/09/09 05:55:35;;;;;;;4.35;2.90;;;;;;;23.21;51.00;100732.06;4982136;28;20054;-74
2022/09/09 05:58:02;;;;;;;7.30;2.30;;;;;;;23.24;51.21;100733.50;4962885;28;20112;-74
2022/09/09 06:00:29;;;;;;;3.67;2.33;;;;;;;23.21;51.17;100730.22;4980270;28;20038;-74
2022/09/09 06:02:55;;;;;;;4.10;2.28;;;;;;;23.19;50.95;100729.63;4997504;28;20037;-75
2022/09/09 06:05:22;;;;;;;4.72;2.60;;;;;;;23.23;51.28;100742.50;4979353;28;20703;-74
2022/09/09 06:07:51;;;;;;;2.53;2.30;;;;;;;23.17;51.08;100738.81;4998230;28;20111;-74
2022/09/09 06:10:17;;;;;;;3.28;2.00;;;;;;;23.21;51.21;100748.81;4977659;28;20042;-77
2022/09/09 06:12:43;;;;;;;2.20;1.83;;;;;;;23.23;51.00;100745.16;4982995;28;20041;-74
2022/09/09 06:15:09;;;;;;;3.88;2.20;;;;;;;23.21;51.23;100750.66;4966084;28;20065;-74
2022/09/09 06:17:34;;;;;;;3.67;2.20;;;;;;;23.21;51.09;100748.81;4995116;28;20033;-74
2022/09/09 06:20:00;;;;;;;3.38;2.30;;;;;;;23.21;51.19;100750.66;4982192;28;20567;-74
2022/09/09 06:22:26;;;;;;;5.22;2.20;;;;;;;23.19;51.18;100740.25;4979178;28;20034;-74
2022/09/09 06:24:53;;;;;;;3.63;2.50;;;;;;;23.20;51.31;100752.50;4964347;28;20041;-74
2022/09/09 06:27:19;;;;;;;2.33;1.88;;;;;;;23.20;51.07;100749.84;4978685;28;20046;-74
2022/09/09 06:29:44;;;;;;;2.95;1.90;;;;;;;23.17;50.99;100741.47;4998043;28;20034;-74
2022/09/09 06:32:10;;;;;;;3.15;2.20;;;;;;;23.20;51.25;100749.84;4965170;28;20029;-74
2022/09/09 06:34:36;;;;;;;3.30;2.00;;;;;;;23.20;51.16;100744.53;4995832;28;20049;-74
2022/09/09 06:37:02;;;;;;;2.17;1.85;;;;;;;23.20;51.08;100741.06;4997943;28;20633;-73
2022/09/09 06:39:36;;;;;;;3.55;2.05;;;;;;;23.20;50.98;100736.56;4983123;28;20065;-74
2022/09/09 06:42:02;;;;;;;2.70;2.00;;;;;;;23.19;51.20;100744.75;4997564;28;20065;-74
2022/09/09 06:44:46;;;;;;;3.67;2.20;;;;;;;23.18;50.91;100743.94;4979284;28;20053;-74
2022/09/09 06:47:20;;;;;;;4.90;2.22;;;;;;;23.22;51.25;100747.00;4989946;28;20038;-74
2022/09/09 06:49:46;;;;;;;4.07;2.20;;;;;;;23.21;51.24;100745.34;4978239;28;20037;-72
2022/09/09 06:52:12;;;;;;;5.72;2.50;;;;;;;23.21;51.25;100746.16;4992084;28;20038;-77
2022/09/09 06:54:38;;;;;;;4.93;2.60;;;;;;;23.21;51.42;100742.69;4980345;28;20049;-78
2022/09/09 06:57:06;;;;;;;12.57;2.88;;;;;;;23.21;51.24;100738.19;4996042;28;20030;-76
2022/09/09 06:59:33;;;;;;;5.67;2.70;;;;;;;23.23;51.18;100745.16;4979886;28;20665;-76
2022/09/09 07:01:59;;;;;;;3.63;2.42;;;;;;;23.21;51.38;100737.38;4994735;28;20492;-77
2022/09/09 07:04:26;;;;;;;4.65;2.20;;;;;;;23.20;51.38;100741.06;4976590;28;20172;-77
2022/09/09 07:06:52;;;;;;;7.47;3.28;;;;;;;23.17;51.26;100733.50;4977206;28;21006;-76
2022/09/09 07:09:22;;;;;;;9.43;3.00;;;;;;;23.20;51.28;100749.03;4964200;28;20559;-77
2022/09/09 07:11:54;;;;;;;7.43;2.67;;;;;;;23.19;51.69;100742.09;4979261;28;20161;-74
2022/09/09 07:14:23;;;;;;;4.00;2.35;;;;;;;23.19;51.45;100740.25;4984130;28;20034;-74
2022/09/09 07:16:58;;;;;;;4.72;2.17;;;;;;;23.17;51.28;100742.28;4985069;28;20045;-74
2022/09/09 07:19:24;;;;;;;3.70;2.50;;;;;;;23.17;51.44;100746.78;4983165;28;20042;-74
2022/09/09 07:21:52;;;;;;;5.35;2.50;;;;;;;23.17;51.32;100744.94;4995954;28;20050;-74
2022/09/09 07:24:19;;;;;;;3.13;2.05;;;;;;;23.16;51.42;100750.44;4978822;28;20490;-74
2022/09/09 07:26:46;;;;;;;9.25;2.70;;;;;;;23.17;51.51;100750.25;4982045;28;20137;-74
2022/09/09 07:29:13;;;;;;;2.80;2.20;;;;;;;23.20;51.19;100749.84;4978135;28;20126;-74
2022/09/09 07:31:41;;;;;;;5.32;2.45;;;;;;;23.16;51.12;100745.13;4974104;28;20037;-74
2022/09/09 07:34:10;;;;;;;6.88;2.10;;;;;;;23.18;51.44;100743.94;4979889;28;20030;-78
2022/09/09 07:36:39;;;;;;;5.00;2.30;;;;;;;23.16;51.42;100743.31;4992354;28;20041;-79
2022/09/09 07:39:11;;;;;;;6.15;2.10;;;;;;;23.09;51.17;100726.53;4978015;28;20099;-78
2022/09/09 07:41:43;;;;;;;3.40;1.90;;;;;;;23.17;51.17;100741.47;4993639;28;20689;-78
2022/09/09 07:44:15;;;;;;;3.65;1.98;;;;;;;23.15;51.30;100743.50;4988423;28;20129;-79
2022/09/09 07:46:44;;;;;;;3.42;1.70;;;;;;;23.16;51.37;100751.28;4993604;28;20030;-76
2022/09/09 07:49:11;;;;;;;4.40;2.15;;;;;;;23.12;51.01;100744.72;4978613;28;20135;-76
2022/09/09 07:51:45;;;;;;;6.28;1.73;;;;;;;23.17;51.41;100744.13;4977161;28;20609;-76
2022/09/09 07:54:15;;;;;;;2.80;1.80;;;;;;;23.13;51.29;100741.03;4978951;28;20044;-76
2022/09/09 07:56:43;;;;;;;2.30;1.92;;;;;;;23.13;51.07;100733.06;4980196;28;20057;-76
2022/09/09 07:59:10;;;;;;;6.07;2.13;;;;;;;23.21;51.47;100743.50;4974853;28;20440;-70
2022/09/09 08:01:43;;;;;;;5.57;2.22;;;;;;;23.33;50.84;100743.69;4926301;28;20703;-75
2022/09/09 08:04:16;;;;;;;5.68;2.22;;;;;;;23.44;50.85;100739.63;4993612;28;20034;-74
2022/09/09 08:06:52;;;;;;;3.00;1.90;;;;;;;23.56;50.58;100742.47;4990730;28;20116;-70
2022/09/09 08:09:20;;;;;;;3.25;2.10;;;;;;;23.63;50.12;100748.63;4978647;28;20030;-72
2022/09/09 08:11:47;;;;;;;3.75;1.80;;;;;;;23.65;50.49;100738.59;4980937;28;20069;-73
2022/09/09 08:14:14;;;;;;;5.30;1.95;;;;;;;23.76;49.54;100751.28;4985721;28;20037;-78
2022/09/09 08:16:43;;;;;;;2.42;1.95;;;;;;;23.75;49.58;100746.97;4952600;28;20034;-74
2022/09/09 08:19:11;;;;;;;3.90;1.80;;;;;;;23.86;49.20;100764.13;4983816;28;20064;-76
2022/09/09 08:21:40;;;;;;;3.97;2.08;;;;;;;23.91;49.65;100765.16;4981177;28;20030;-79
2022/09/09 08:24:08;;;;;;;4.88;2.42;;;;;;;23.88;49.46;100762.06;4984337;28;20104;-79
2022/09/09 08:26:36;;;;;;;3.17;2.00;;;;;;;23.97;49.79;100761.66;4995501;28;20050;-76
2022/09/09 08:29:04;;;;;;;7.07;2.13;;;;;;;23.93;49.99;100755.13;4984294;28;20040;-78
2022/09/09 08:31:31;;;;;;;6.68;2.58;;;;;;;23.96;49.77;100760.03;4975518;28;20033;-75
2022/09/09 08:34:05;;;;;;;4.75;1.92;;;;;;;24.00;48.92;100760.41;4967262;28;20042;-80
2022/09/09 08:36:38;;;;;;;3.33;1.90;;;;;;;24.00;48.59;100763.06;4982235;28;20464;-79
2022/09/09 08:39:06;;;;;;;2.63;2.03;;;;;;;23.97;49.62;100756.34;4994636;28;20420;-82
2022/09/09 08:41:44;;;;;;;3.45;2.03;;;;;;;24.07;49.80;100771.88;4971416;28;20034;-81
2022/09/09 08:44:38;;;;;;;5.57;1.90;;;;;;;24.09;48.79;100775.94;4978929;28;20315;-74
2022/09/09 08:47:14;;;;;;;3.45;1.98;;;;;;;24.15;49.61;100762.84;4973959;28;20062;-74
2022/09/09 08:49:58;;;;;;;3.35;1.60;;;;;;;24.18;48.66;100759.75;4969791;28;20039;-75
2022/09/09 08:52:38;;;;;;;2.67;1.88;;;;;;;24.20;49.89;100763.81;4992564;28;20555;-73
2022/09/09 08:55:27;;;;;;;3.83;1.85;;;;;;;24.24;50.00;100770.38;4984231;28;20036;-75
2022/09/09 08:57:57;;;;;;;2.40;1.65;;;;;;;24.23;49.94;100768.72;4996973;28;20770;-72
2022/09/09 09:00:35;;;;;;;4.32;1.92;;;;;;;24.32;49.79;100769.34;4979923;28;20038;-73
2022/09/09 09:03:05;;;;;;;4.63;1.90;;;;;;;24.35;49.49;100769.75;4983229;28;20492;-73
2022/09/09 09:05:37;;;;;;;;;;;;;;;24.40;49.85;100769.91;4960861;28;20045;-72
2022/09/09 09:08:03;;;;;;;2.78;1.80;;;;;;;24.39;49.98;100772.78;4980483;28;19921;-72
2022/09/09 09:10:47;;;;;;;2.58;1.70;;;;;;;24.44;49.68;100775.66;4983881;28;20084;-77
2022/09/09 09:13:34;;;;;;;3.35;1.80;;;;;;;24.51;50.01;100775.63;4980890;28;22135;-78
2022/09/09 09:16:11;;;;;;;2.97;1.92;;;;;;;24.53;49.66;100777.03;4979305;28;20107;-74
2022/09/09 09:18:37;;;;;;;3.55;1.45;;;;;;;24.61;49.30;100781.31;5001013;28;20046;-74
2022/09/09 09:21:20;;;;;;;3.78;1.70;;;;;;;24.67;49.44;100791.94;4958055;28;20099;-75
2022/09/09 09:24:00;;;;;;;3.45;1.50;;;;;;;24.71;49.02;100793.13;4997429;28;20044;-79
2022/09/09 09:26:35;;;;;;;5.53;2.10;;;;;;;24.75;49.26;100787.38;4974726;28;20072;-74
2022/09/09 09:29:14;;;;;;;2.80;1.60;;;;;;;24.79;48.78;100788.59;4983904;28;20044;-78
2022/09/09 09:31:52;;;;;;;2.43;1.70;;;;;;;24.77;49.55;100791.44;4983490;28;20451;-76
2022/09/09 09:34:17;;;;;;;2.65;1.85;;;;;;;24.84;49.18;100797.56;4993553;28;20465;-76
2022/09/09 09:36:52;;;;;;;4.18;1.80;;;;;;;24.80;49.35;100792.91;4965133;28;20040;-76
2022/09/09 09:39:30;;;;;;;2.75;2.00;;;;;;;24.81;49.10;100789.19;4985292;28;20026;-71
2022/09/09 09:42:11;;;;;;;2.58;1.80;;;;;;;24.77;49.04;100791.44;4977738;28;20875;-79
2022/09/09 09:44:37;;;;;;;6.90;2.22;;;;;;;24.81;48.41;100797.19;4998014;28;20041;-71
2022/09/09 09:47:19;;;;;;;2.83;1.90;;;;;;;24.74;49.16;100793.72;4976579;28;20038;-72
2022/09/09 09:50:18;;;;;;;4.90;2.30;;;;;;;24.67;49.19;100794.59;4996415;28;20045;-72
2022/09/09 09:52:55;;;;;;;3.70;1.90;;;;;;;24.65;49.44;100790.50;4975716;28;20042;-71
2022/09/09 09:55:22;;;;;;;3.03;1.95;;;;;;;24.59;49.30;100786.00;4958331;28;20025;-72
2022/09/09 09:57:48;;;;;;;2.38;1.80;;;;;;;24.59;49.74;100786.00;4970186;28;20049;-73
2022/09/09 10:00:20;;;;;;;2.35;1.52;;;;;;;24.59;49.02;100800.13;4976506;28;20404;-73
2022/09/09 10:02:53;;;;;;;;;;;;;;;24.57;49.17;100794.22;4994525;28;20775;-73
2022/09/09 10:05:28;;;;;;;4.25;2.00;;;;;;;24.54;49.28;100786.66;4992662;28;19960;-73
2022/09/09 10:08:10;;;;;;;3.70;1.70;;;;;;;24.57;49.25;100790.72;4996459;28;20069;-72
2022/09/09 10:10:49;;;;;;;5.13;2.15;;;;;;;24.56;49.42;100789.09;4984504;28;20034;-74
2022/09/09 10:13:21;;;;;;;3.40;1.95;;;;;;;24.57;49.31;100798.72;4982846;28;20974;-72
2022/09/09 10:16:06;;;;;;;5.72;2.42;;;;;;;24.67;48.39;100793.78;4994419;28;20038;-73
2022/09/09 10:18:48;;;;;;;17.30;2.75;;;;;;;24.75;47.68;100792.69;4998454;28;20061;-73
2022/09/09 10:21:28;;;;;;;6.68;2.58;;;;;;;24.80;48.20;100796.38;4997677;28;20586;-72
2022/09/09 10:24:24;;;;;;;6.20;2.47;;;;;;;24.82;47.41;100791.66;4975295;28;20064;-77
2022/09/09 10:27:18;;;;;;;8.52;3.05;;;;;;;24.82;47.78;100801.47;4988408;28;20369;-76
2022/09/09 10:30:09;;;;;;;10.23;2.83;;;;;;;24.84;47.54;100800.25;4993249;28;20054;-78
2022/09/09 10:32:40;;;;;;;6.55;2.75;;;;;;;24.82;47.85;100796.97;4997286;28;20625;-78
2022/09/09 10:35:41;;;;;;;5.35;2.53;;;;;;;24.86;47.76;100798.19;4997849;28;20047;-74
2022/09/09 10:38:17;;;;;;;6.45;2.50;;;;;;;24.91;47.98;100806.34;4996755;28;20061;-71
2022/09/09 10:41:00;;;;;;;9.40;2.85;;;;;;;24.93;47.76;100798.94;4999733;28;20041;-78
2022/09/09 10:43:36;;;;;;;5.65;2.67;;;;;;;24.92;47.45;100799.97;4973464;28;20108;-80
2022/09/09 10:46:16;;;;;;;8.60;3.22;;;;;;;24.95;47.39;100799.53;5001132;28;20034;-72
2022/09/09 10:48:43;;;;;;;6.57;2.88;;;;;;;24.94;47.45;100794.44;4981849;28;20038;-76
2022/09/09 10:51:37;;;;;;;6.65;2.63;;;;;;;24.86;47.38;100776.06;4992606;28;20034;-75
2022/09/09 10:54:15;;;;;;;5.57;3.10;;;;;;;24.94;47.41;100789.09;5003525;28;20184;-74
2022/09/09 10:56:45;;;;;;;7.28;2.85;;;;;;;24.95;47.44;100790.72;5001347;28;20092;-79
2022/09/09 10:59:23;;;;;;;8.48;2.45;;;;;;;24.90;46.98;100782.56;4973533;28;20056;-79
2022/09/09 11:02:06;;;;;;;8.93;2.97;;;;;;;24.78;47.49;100787.78;4998121;28;20056;-71
2022/09/09 11:04:57;;;;;;;7.10;3.00;;;;;;;24.75;48.00;100790.84;4997411;28;20038;-71
2022/09/09 11:07:59;;;;;;;11.90;2.65;;;;;;;24.69;48.12;100795.19;4996242;28;20116;-75
2022/09/09 11:10:40;;;;;;;6.30;3.13;;;;;;;24.72;47.66;100785.94;4996682;28;20033;-73
2022/09/09 11:13:19;;;;;;;5.90;2.60;;;;;;;24.74;47.26;100785.75;4997855;28;20041;-70
2022/09/09 11:15:53;;;;;;;7.05;2.38;;;;;;;24.82;47.40;100790.84;4975305;28;20053;-76
2022/09/09 11:18:23;;;;;;;18.13;2.83;;;;;;;24.68;47.99;100764.25;4996805;28;20061;-70
2022/09/09 11:20:55;;;;;;;7.20;2.47;;;;;;;24.75;47.64;100790.84;4999573;28;20044;-70
2022/09/09 11:23:35;;;;;;;10.23;2.70;;;;;;;24.82;47.67;100790.84;5003872;28;20102;-76
2022/09/09 11:26:03;;;;;;;;;;;;;;;24.86;47.62;100790.19;4993943;28;20061;-75
2022/09/09 11:28:51;;;;;;;8.95;2.78;;;;;;;24.92;47.64;100791.97;4993307;28;19917;-76
2022/09/09 11:31:39;;;;;;;5.32;2.20;;;;;;;24.76;47.83;100789.81;4970229;28;20795;-78
2022/09/09 11:34:14;;;;;;;5.40;2.60;;;;;;;24.69;48.04;100791.72;4994718;28;20042;-78
2022/09/09 11:37:00;;;;;;;8.60;3.47;;;;;;;24.73;47.67;100784.09;4979403;28;20041;-77
2022/09/09 11:39:57;;;;;;;7.05;3.42;;;;;;;24.79;47.26;100786.75;4996186;28;20054;-77
2022/09/09 11:42:24;;;;;;;9.77;3.20;;;;;;;24.81;47.04;100790.00;5004399;28;20034;-78
2022/09/09 11:44:51;;;;;;;5.85;3.40;;;;;;;24.85;47.26;100785.88;4999680;28;20096;-79
2022/09/09 11:47:26;;;;;;;7.88;3.47;;;;;;;24.86;46.81;100792.03;4968341;28;21066;-79
2022/09/09 11:49:53;;;;;;;8.98;3.30;;;;;;;24.89;47.71;100792.41;4983658;28;20124;-76
2022/09/09 11:52:25;;;;;;;6.50;3.10;;;;;;;24.77;47.93;100795.97;4999561;28;20041;-77
2022/09/09 11:54:51;;;;;;;6.65;2.97;;;;;;;24.74;48.16;100801.72;4983314;28;20034;-78